sensor_id;sensor_type;location;lat;lon;timestamp;temperature;humidity
79049;DHT22;68680;50.764;6.120;2023-09-07T00:01:41;16.60;99.10
79049;DHT22;68680;50.764;6.120;2023-09-07T00:04:07;16.60;99.50
79049;DHT22;68680;50.764;6.120;2023-09-07T00:06:32;16.60;99.10
79049;DHT22;68680;50.764;6.120;2023-09-07T00:08:58;16.50;99.70
79049;DHT22;68680;50.764;6.120;2023-09-07T00:11:24;16.40;99.90
79049;DHT22;68680;50.764;6.120;2023-09-07T00:13:49;16.50;99.80
79049;DHT22;68680;50.764;6.120;2023-09-07T00:16:15;16.50;99.50
79049;DHT22;68680;50.764;6.120;2023-09-07T00:18:42;16.50;99.10
79049;DHT22;68680;50.764;6.120;2023-09-07T00:21:08;16.60;99.20
79049;DHT22;68680;50.764;6.120;2023-09-07T00:23:33;16.60;98.50
79049;DHT22;68680;50.764;6.120;2023-09-07T00:25:59;16.70;98.30
79049;DHT22;68680;50.764;6.120;2023-09-07T00:28:24;16.70;98.30
79049;DHT22;68680;50.764;6.120;2023-09-07T00:30:50;16.70;97.90
79049;DHT22;68680;50.764;6.120;2023-09-07T00:33:16;16.70;97.90
79049;DHT22;68680;50.764;6.120;2023-09-07T00:35:42;16.70;98.70
79049;DHT22;68680;50.764;6.120;2023-09-07T00:38:08;16.70;98.60
79049;DHT22;68680;50.764;6.120;2023-09-07T00:40:34;16.70;98.70
79049;DHT22;68680;50.764;6.120;2023-09-07T00:43:00;16.70;98.30
79049;DHT22;68680;50.764;6.120;2023-09-07T00:45:26;16.80;98.00
79049;DHT22;68680;50.764;6.120;2023-09-07T00:47:52;16.80;97.60
79049;DHT22;68680;50.764;6.120;2023-09-07T00:50:18;16.80;97.50
79049;DHT22;68680;50.764;6.120;2023-09-07T00:52:46;16.80;97.20
79049;DHT22;68680;50.764;6.120;2023-09-07T00:55:12;16.80;97.20
79049;DHT22;68680;50.764;6.120;2023-09-07T00:57:39;16.80;97.20
79049;DHT22;68680;50.764;6.120;2023-09-07T01:00:06;16.90;97.20
79049;DHT22;68680;50.764;6.120;2023-09-07T01:02:32;16.90;98.20
79049;DHT22;68680;50.764;6.120;2023-09-07T01:04:57;16.90;98.80
79049;DHT22;68680;50.764;6.120;2023-09-07T01:07:25;16.90;99.00
79049;DHT22;68680;50.764;6.120;2023-09-07T01:09:56;16.80;97.00
79049;DHT22;68680;50.764;6.120;2023-09-07T01:12:23;16.90;97.60
79049;DHT22;68680;50.764;6.120;2023-09-07T01:14:48;16.90;97.50
79049;DHT22;68680;50.764;6.120;2023-09-07T01:17:14;16.90;97.00
79049;DHT22;68680;50.764;6.120;2023-09-07T01:19:40;16.90;96.30
79049;DHT22;68680;50.764;6.120;2023-09-07T01:22:08;17.00;97.20
79049;DHT22;68680;50.764;6.120;2023-09-07T01:24:34;16.90;96.40
79049;DHT22;68680;50.764;6.120;2023-09-07T01:27:03;16.90;95.90
79049;DHT22;68680;50.764;6.120;2023-09-07T01:29:30;16.90;95.70
79049;DHT22;68680;50.764;6.120;2023-09-07T01:31:56;17.00;95.70
79049;DHT22;68680;50.764;6.120;2023-09-07T01:40:01;17.10;95.80
79049;DHT22;68680;50.764;6.120;2023-09-07T01:42:26;17.10;95.20
79049;DHT22;68680;50.764;6.120;2023-09-07T01:44:52;17.10;95.10
79049;DHT22;68680;50.764;6.120;2023-09-07T01:47:18;17.10;95.20
79049;DHT22;68680;50.764;6.120;2023-09-07T01:49:43;17.00;95.10
79049;DHT22;68680;50.764;6.120;2023-09-07T01:52:09;17.00;95.20
79049;DHT22;68680;50.764;6.120;2023-09-07T01:54:34;16.90;95.50
79049;DHT22;68680;50.764;6.120;2023-09-07T01:57:01;16.80;95.70
79049;DHT22;68680;50.764;6.120;2023-09-07T01:59:27;16.80;96.10
79049;DHT22;68680;50.764;6.120;2023-09-07T02:01:53;16.70;95.60
79049;DHT22;68680;50.764;6.120;2023-09-07T02:04:18;16.70;95.70
79049;DHT22;68680;50.764;6.120;2023-09-07T02:06:44;16.60;95.80
79049;DHT22;68680;50.764;6.120;2023-09-07T02:09:09;16.50;95.80
79049;DHT22;68680;50.764;6.120;2023-09-07T02:11:35;16.40;96.50
79049;DHT22;68680;50.764;6.120;2023-09-07T02:14:02;16.40;96.40
79049;DHT22;68680;50.764;6.120;2023-09-07T02:16:27;16.40;96.80
79049;DHT22;68680;50.764;6.120;2023-09-07T02:19:02;16.30;96.50
79049;DHT22;68680;50.764;6.120;2023-09-07T02:21:28;16.10;97.00
79049;DHT22;68680;50.764;6.120;2023-09-07T02:23:54;15.90;97.10
79049;DHT22;68680;50.764;6.120;2023-09-07T02:26:19;15.80;97.60
79049;DHT22;68680;50.764;6.120;2023-09-07T02:28:45;15.80;98.50
79049;DHT22;68680;50.764;6.120;2023-09-07T02:31:12;15.80;98.50
79049;DHT22;68680;50.764;6.120;2023-09-07T02:33:37;15.70;98.40
79049;DHT22;68680;50.764;6.120;2023-09-07T02:36:03;15.70;98.90
79049;DHT22;68680;50.764;6.120;2023-09-07T02:38:29;15.60;98.90
79049;DHT22;68680;50.764;6.120;2023-09-07T02:40:55;15.70;99.30
79049;DHT22;68680;50.764;6.120;2023-09-07T02:43:21;15.70;99.00
79049;DHT22;68680;50.764;6.120;2023-09-07T02:45:48;15.70;99.40
79049;DHT22;68680;50.764;6.120;2023-09-07T02:48:15;15.60;99.20
79049;DHT22;68680;50.764;6.120;2023-09-07T02:50:41;15.60;99.30
79049;DHT22;68680;50.764;6.120;2023-09-07T02:53:06;15.60;99.70
79049;DHT22;68680;50.764;6.120;2023-09-07T02:55:32;15.50;99.80
79049;DHT22;68680;50.764;6.120;2023-09-07T02:57:58;15.50;99.70
79049;DHT22;68680;50.764;6.120;2023-09-07T03:00:23;15.50;99.90
79049;DHT22;68680;50.764;6.120;2023-09-07T03:02:49;15.50;99.90
79049;DHT22;68680;50.764;6.120;2023-09-07T03:05:16;15.50;99.90
79049;DHT22;68680;50.764;6.120;2023-09-07T03:07:45;15.40;99.90
79049;DHT22;68680;50.764;6.120;2023-09-07T03:10:11;15.40;99.90
79049;DHT22;68680;50.764;6.120;2023-09-07T03:12:37;15.40;99.90
79049;DHT22;68680;50.764;6.120;2023-09-07T03:15:03;15.40;99.90
79049;DHT22;68680;50.764;6.120;2023-09-07T03:17:29;15.40;99.90
79049;DHT22;68680;50.764;6.120;2023-09-07T03:19:54;15.40;99.90
79049;DHT22;68680;50.764;6.120;2023-09-07T03:22:22;15.30;99.90
79049;DHT22;68680;50.764;6.120;2023-09-07T03:24:50;15.30;99.90
79049;DHT22;68680;50.764;6.120;2023-09-07T03:27:16;15.30;99.90
79049;DHT22;68680;50.764;6.120;2023-09-07T03:29:43;15.30;99.90
79049;DHT22;68680;50.764;6.120;2023-09-07T03:32:09;15.30;99.90
79049;DHT22;68680;50.764;6.120;2023-09-07T03:34:34;15.20;99.90
79049;DHT22;68680;50.764;6.120;2023-09-07T03:37:00;15.20;99.90
79049;DHT22;68680;50.764;6.120;2023-09-07T03:39:27;15.10;99.90
79049;DHT22;68680;50.764;6.120;2023-09-07T03:41:52;15.10;99.90
79049;DHT22;68680;50.764;6.120;2023-09-07T03:44:18;15.00;99.90
79049;DHT22;68680;50.764;6.120;2023-09-07T03:46:44;14.90;99.90
79049;DHT22;68680;50.764;6.120;2023-09-07T03:49:09;14.90;99.90
79049;DHT22;68680;50.764;6.120;2023-09-07T03:51:35;14.90;99.90
79049;DHT22;68680;50.764;6.120;2023-09-07T03:54:00;14.80;99.90
79049;DHT22;68680;50.764;6.120;2023-09-07T03:56:27;14.80;99.90
79049;DHT22;68680;50.764;6.120;2023-09-07T03:58:53;14.90;99.90
79049;DHT22;68680;50.764;6.120;2023-09-07T04:01:18;14.80;99.90
79049;DHT22;68680;50.764;6.120;2023-09-07T04:03:44;14.90;99.90
79049;DHT22;68680;50.764;6.120;2023-09-07T04:06:10;14.90;99.90
79049;DHT22;68680;50.764;6.120;2023-09-07T04:08:35;14.90;99.90
79049;DHT22;68680;50.764;6.120;2023-09-07T04:11:03;14.80;99.90
79049;DHT22;68680;50.764;6.120;2023-09-07T04:13:31;14.70;99.90
79049;DHT22;68680;50.764;6.120;2023-09-07T04:15:56;14.60;99.90
79049;DHT22;68680;50.764;6.120;2023-09-07T04:18:22;14.60;99.90
79049;DHT22;68680;50.764;6.120;2023-09-07T04:20:47;14.60;99.90
79049;DHT22;68680;50.764;6.120;2023-09-07T04:23:13;14.60;99.90
79049;DHT22;68680;50.764;6.120;2023-09-07T04:25:39;14.60;99.90
79049;DHT22;68680;50.764;6.120;2023-09-07T04:28:05;14.40;99.90
79049;DHT22;68680;50.764;6.120;2023-09-07T04:30:32;14.30;99.90
79049;DHT22;68680;50.764;6.120;2023-09-07T04:32:57;14.20;99.90
79049;DHT22;68680;50.764;6.120;2023-09-07T04:35:29;14.10;99.90
79049;DHT22;68680;50.764;6.120;2023-09-07T04:37:54;14.30;99.90
79049;DHT22;68680;50.764;6.120;2023-09-07T04:40:21;14.20;99.90
79049;DHT22;68680;50.764;6.120;2023-09-07T04:42:47;14.30;99.90
79049;DHT22;68680;50.764;6.120;2023-09-07T04:45:12;14.30;99.90
79049;DHT22;68680;50.764;6.120;2023-09-07T04:47:39;14.30;99.90
79049;DHT22;68680;50.764;6.120;2023-09-07T04:50:06;14.30;99.90
79049;DHT22;68680;50.764;6.120;2023-09-07T04:52:32;14.30;99.90
79049;DHT22;68680;50.764;6.120;2023-09-07T04:54:57;14.20;99.90
79049;DHT22;68680;50.764;6.120;2023-09-07T04:57:23;14.20;99.90
79049;DHT22;68680;50.764;6.120;2023-09-07T04:59:49;14.20;99.90
79049;DHT22;68680;50.764;6.120;2023-09-07T05:02:14;14.20;99.90
79049;DHT22;68680;50.764;6.120;2023-09-07T05:04:41;14.20;99.90
79049;DHT22;68680;50.764;6.120;2023-09-07T05:07:07;14.00;99.90
79049;DHT22;68680;50.764;6.120;2023-09-07T05:09:32;13.90;99.90
79049;DHT22;68680;50.764;6.120;2023-09-07T05:11:58;13.90;99.90
79049;DHT22;68680;50.764;6.120;2023-09-07T05:14:23;14.00;99.90
79049;DHT22;68680;50.764;6.120;2023-09-07T05:16:49;14.00;99.90
79049;DHT22;68680;50.764;6.120;2023-09-07T05:19:15;14.00;99.90
79049;DHT22;68680;50.764;6.120;2023-09-07T05:21:42;13.90;99.90
79049;DHT22;68680;50.764;6.120;2023-09-07T05:24:08;14.00;99.90
79049;DHT22;68680;50.764;6.120;2023-09-07T05:26:33;14.00;99.90
79049;DHT22;68680;50.764;6.120;2023-09-07T05:28:59;14.10;99.90
79049;DHT22;68680;50.764;6.120;2023-09-07T05:31:24;13.90;99.90
79049;DHT22;68680;50.764;6.120;2023-09-07T05:33:50;13.80;99.90
79049;DHT22;68680;50.764;6.120;2023-09-07T05:36:16;13.80;99.90
79049;DHT22;68680;50.764;6.120;2023-09-07T05:38:43;13.70;99.90
79049;DHT22;68680;50.764;6.120;2023-09-07T05:41:08;13.80;99.90
79049;DHT22;68680;50.764;6.120;2023-09-07T05:43:34;13.80;99.90
79049;DHT22;68680;50.764;6.120;2023-09-07T05:45:59;14.00;99.90
79049;DHT22;68680;50.764;6.120;2023-09-07T05:48:25;14.00;99.90
79049;DHT22;68680;50.764;6.120;2023-09-07T05:50:51;14.10;99.90
79049;DHT22;68680;50.764;6.120;2023-09-07T05:53:18;14.20;99.90
79049;DHT22;68680;50.764;6.120;2023-09-07T05:55:45;14.30;99.90
79049;DHT22;68680;50.764;6.120;2023-09-07T05:58:12;14.40;99.90
79049;DHT22;68680;50.764;6.120;2023-09-07T06:00:37;14.40;99.90
79049;DHT22;68680;50.764;6.120;2023-09-07T06:03:04;14.50;99.90
79049;DHT22;68680;50.764;6.120;2023-09-07T06:05:29;14.50;99.90
79049;DHT22;68680;50.764;6.120;2023-09-07T06:07:55;14.50;99.90
79049;DHT22;68680;50.764;6.120;2023-09-07T06:10:21;14.50;99.90
79049;DHT22;68680;50.764;6.120;2023-09-07T06:12:47;14.50;99.90
79049;DHT22;68680;50.764;6.120;2023-09-07T06:15:13;14.60;99.90
79049;DHT22;68680;50.764;6.120;2023-09-07T06:17:39;14.80;99.90
79049;DHT22;68680;50.764;6.120;2023-09-07T06:20:05;14.80;99.90
79049;DHT22;68680;50.764;6.120;2023-09-07T06:22:31;14.90;99.90
79049;DHT22;68680;50.764;6.120;2023-09-07T06:24:57;15.00;99.90
79049;DHT22;68680;50.764;6.120;2023-09-07T06:27:22;15.10;99.90
79049;DHT22;68680;50.764;6.120;2023-09-07T06:29:49;15.20;99.90
79049;DHT22;68680;50.764;6.120;2023-09-07T06:32:15;15.30;99.90
79049;DHT22;68680;50.764;6.120;2023-09-07T06:34:41;15.50;99.90
79049;DHT22;68680;50.764;6.120;2023-09-07T06:37:06;15.60;99.90
79049;DHT22;68680;50.764;6.120;2023-09-07T06:39:32;15.70;99.90
79049;DHT22;68680;50.764;6.120;2023-09-07T06:41:58;15.80;99.90
79049;DHT22;68680;50.764;6.120;2023-09-07T06:44:23;15.90;99.90
79049;DHT22;68680;50.764;6.120;2023-09-07T06:46:50;16.00;99.90
79049;DHT22;68680;50.764;6.120;2023-09-07T06:49:16;16.10;99.90
79049;DHT22;68680;50.764;6.120;2023-09-07T06:51:41;16.30;99.90
79049;DHT22;68680;50.764;6.120;2023-09-07T06:54:07;16.40;99.90
79049;DHT22;68680;50.764;6.120;2023-09-07T06:56:33;16.50;99.90
79049;DHT22;68680;50.764;6.120;2023-09-07T06:58:58;16.60;99.90
79049;DHT22;68680;50.764;6.120;2023-09-07T07:01:24;16.70;99.90
79049;DHT22;68680;50.764;6.120;2023-09-07T07:03:51;16.80;99.90
79049;DHT22;68680;50.764;6.120;2023-09-07T07:06:16;16.90;99.90
79049;DHT22;68680;50.764;6.120;2023-09-07T07:08:42;17.00;99.90
79049;DHT22;68680;50.764;6.120;2023-09-07T07:11:07;17.20;99.90
79049;DHT22;68680;50.764;6.120;2023-09-07T07:13:33;17.30;99.90
79049;DHT22;68680;50.764;6.120;2023-09-07T07:15:59;17.50;99.90
79049;DHT22;68680;50.764;6.120;2023-09-07T07:18:24;17.60;99.90
79049;DHT22;68680;50.764;6.120;2023-09-07T07:20:51;17.70;99.90
79049;DHT22;68680;50.764;6.120;2023-09-07T07:23:17;17.80;99.90
79049;DHT22;68680;50.764;6.120;2023-09-07T07:25:42;17.90;99.90
79049;DHT22;68680;50.764;6.120;2023-09-07T07:28:08;18.10;99.90
79049;DHT22;68680;50.764;6.120;2023-09-07T07:30:34;18.20;99.90
79049;DHT22;68680;50.764;6.120;2023-09-07T07:33:00;18.30;99.90
79049;DHT22;68680;50.764;6.120;2023-09-07T07:35:26;18.40;99.90
79049;DHT22;68680;50.764;6.120;2023-09-07T07:37:53;18.60;99.90
79049;DHT22;68680;50.764;6.120;2023-09-07T07:40:18;18.70;99.90
79049;DHT22;68680;50.764;6.120;2023-09-07T07:42:44;18.90;99.90
79049;DHT22;68680;50.764;6.120;2023-09-07T07:45:10;19.00;99.90
79049;DHT22;68680;50.764;6.120;2023-09-07T07:47:35;19.20;99.90
79049;DHT22;68680;50.764;6.120;2023-09-07T07:50:01;19.40;98.90
79049;DHT22;68680;50.764;6.120;2023-09-07T07:52:27;19.50;96.40
79049;DHT22;68680;50.764;6.120;2023-09-07T07:54:54;19.70;95.90
79049;DHT22;68680;50.764;6.120;2023-09-07T07:57:20;19.90;95.00
79049;DHT22;68680;50.764;6.120;2023-09-07T07:59:45;20.10;94.10
79049;DHT22;68680;50.764;6.120;2023-09-07T08:02:11;20.30;93.70
79049;DHT22;68680;50.764;6.120;2023-09-07T08:04:36;20.40;93.80
79049;DHT22;68680;50.764;6.120;2023-09-07T08:07:02;20.50;93.10
79049;DHT22;68680;50.764;6.120;2023-09-07T08:09:28;20.70;91.70
79049;DHT22;68680;50.764;6.120;2023-09-07T08:11:55;20.80;91.50
79049;DHT22;68680;50.764;6.120;2023-09-07T08:14:21;20.90;91.30
79049;DHT22;68680;50.764;6.120;2023-09-07T08:16:46;21.00;91.10
79049;DHT22;68680;50.764;6.120;2023-09-07T08:19:12;21.10;90.40
79049;DHT22;68680;50.764;6.120;2023-09-07T08:21:37;21.20;90.50
79049;DHT22;68680;50.764;6.120;2023-09-07T08:24:03;21.30;88.50
79049;DHT22;68680;50.764;6.120;2023-09-07T08:26:29;21.40;87.60
79049;DHT22;68680;50.764;6.120;2023-09-07T08:28:56;21.50;86.80
79049;DHT22;68680;50.764;6.120;2023-09-07T08:31:21;21.70;86.50
79049;DHT22;68680;50.764;6.120;2023-09-07T08:33:47;21.80;86.40
79049;DHT22;68680;50.764;6.120;2023-09-07T08:36:13;21.90;85.00
79049;DHT22;68680;50.764;6.120;2023-09-07T08:38:39;22.00;84.90
79049;DHT22;68680;50.764;6.120;2023-09-07T08:41:05;22.10;84.80
79049;DHT22;68680;50.764;6.120;2023-09-07T08:43:33;22.20;84.70
79049;DHT22;68680;50.764;6.120;2023-09-07T08:46:05;22.30;83.80
79049;DHT22;68680;50.764;6.120;2023-09-07T08:48:32;22.40;83.50
79049;DHT22;68680;50.764;6.120;2023-09-07T08:50:59;22.40;82.30
79049;DHT22;68680;50.764;6.120;2023-09-07T08:53:25;22.50;82.20
79049;DHT22;68680;50.764;6.120;2023-09-07T08:55:51;22.60;81.30
79049;DHT22;68680;50.764;6.120;2023-09-07T08:58:17;22.70;81.10
79049;DHT22;68680;50.764;6.120;2023-09-07T09:00:43;22.80;81.20
79049;DHT22;68680;50.764;6.120;2023-09-07T09:03:10;22.90;81.30
79049;DHT22;68680;50.764;6.120;2023-09-07T09:05:38;23.10;81.90
79049;DHT22;68680;50.764;6.120;2023-09-07T09:08:05;23.20;80.30
79049;DHT22;68680;50.764;6.120;2023-09-07T09:10:30;23.30;80.40
79049;DHT22;68680;50.764;6.120;2023-09-07T09:12:56;23.40;81.00
79049;DHT22;68680;50.764;6.120;2023-09-07T09:15:22;23.40;80.80
79049;DHT22;68680;50.764;6.120;2023-09-07T09:17:48;23.50;79.60
79049;DHT22;68680;50.764;6.120;2023-09-07T09:20:22;23.50;79.30
79049;DHT22;68680;50.764;6.120;2023-09-07T09:22:50;23.60;78.00
79049;DHT22;68680;50.764;6.120;2023-09-07T09:25:15;23.70;78.00
79049;DHT22;68680;50.764;6.120;2023-09-07T09:27:41;23.80;78.10
79049;DHT22;68680;50.764;6.120;2023-09-07T09:30:08;23.90;78.30
79049;DHT22;68680;50.764;6.120;2023-09-07T09:32:34;23.90;77.60
79049;DHT22;68680;50.764;6.120;2023-09-07T09:35:00;23.90;76.90
79049;DHT22;68680;50.764;6.120;2023-09-07T09:37:27;24.00;76.70
79049;DHT22;68680;50.764;6.120;2023-09-07T09:39:53;24.20;76.30
79049;DHT22;68680;50.764;6.120;2023-09-07T09:42:20;24.20;75.30
79049;DHT22;68680;50.764;6.120;2023-09-07T09:44:47;24.30;75.00
79049;DHT22;68680;50.764;6.120;2023-09-07T09:47:15;24.40;75.40
79049;DHT22;68680;50.764;6.120;2023-09-07T09:49:41;24.50;74.20
79049;DHT22;68680;50.764;6.120;2023-09-07T09:52:07;24.60;75.60
79049;DHT22;68680;50.764;6.120;2023-09-07T09:54:35;24.60;75.10
79049;DHT22;68680;50.764;6.120;2023-09-07T09:57:01;24.70;75.30
79049;DHT22;68680;50.764;6.120;2023-09-07T09:59:27;24.80;74.30
79049;DHT22;68680;50.764;6.120;2023-09-07T10:01:55;24.90;74.00
79049;DHT22;68680;50.764;6.120;2023-09-07T10:04:21;25.00;72.90
79049;DHT22;68680;50.764;6.120;2023-09-07T10:06:53;25.00;67.60
79049;DHT22;68680;50.764;6.120;2023-09-07T10:09:19;25.20;63.10
79049;DHT22;68680;50.764;6.120;2023-09-07T10:11:52;25.20;63.30
79049;DHT22;68680;50.764;6.120;2023-09-07T10:14:18;25.40;62.40
79049;DHT22;68680;50.764;6.120;2023-09-07T10:16:44;25.40;62.70
79049;DHT22;68680;50.764;6.120;2023-09-07T10:19:16;25.50;62.30
79049;DHT22;68680;50.764;6.120;2023-09-07T10:21:42;25.60;61.50
79049;DHT22;68680;50.764;6.120;2023-09-07T10:24:08;25.70;61.70
79049;DHT22;68680;50.764;6.120;2023-09-07T10:26:34;25.70;61.50
79049;DHT22;68680;50.764;6.120;2023-09-07T10:29:02;25.80;60.90
79049;DHT22;68680;50.764;6.120;2023-09-07T10:31:27;25.80;60.30
79049;DHT22;68680;50.764;6.120;2023-09-07T10:33:53;26.00;60.70
79049;DHT22;68680;50.764;6.120;2023-09-07T10:36:23;26.00;61.30
79049;DHT22;68680;50.764;6.120;2023-09-07T10:38:48;26.10;62.20
79049;DHT22;68680;50.764;6.120;2023-09-07T10:41:14;26.20;61.60
79049;DHT22;68680;50.764;6.120;2023-09-07T10:43:47;26.20;61.50
79049;DHT22;68680;50.764;6.120;2023-09-07T10:46:14;26.20;61.00
79049;DHT22;68680;50.764;6.120;2023-09-07T10:48:40;26.20;60.00
79049;DHT22;68680;50.764;6.120;2023-09-07T10:51:06;26.20;60.10
79049;DHT22;68680;50.764;6.120;2023-09-07T10:53:32;26.30;59.60
79049;DHT22;68680;50.764;6.120;2023-09-07T10:55:59;26.40;59.10
79049;DHT22;68680;50.764;6.120;2023-09-07T10:58:29;26.40;58.80
79049;DHT22;68680;50.764;6.120;2023-09-07T11:00:55;26.40;59.30
79049;DHT22;68680;50.764;6.120;2023-09-07T11:03:22;26.30;59.90
79049;DHT22;68680;50.764;6.120;2023-09-07T11:05:50;26.30;59.50
79049;DHT22;68680;50.764;6.120;2023-09-07T11:08:16;26.40;59.70
79049;DHT22;68680;50.764;6.120;2023-09-07T11:10:42;26.50;59.10
79049;DHT22;68680;50.764;6.120;2023-09-07T11:13:08;26.60;57.40
79049;DHT22;68680;50.764;6.120;2023-09-07T11:15:35;26.70;57.10
79049;DHT22;68680;50.764;6.120;2023-09-07T11:18:04;26.80;57.30
79049;DHT22;68680;50.764;6.120;2023-09-07T11:20:31;26.70;55.40
79049;DHT22;68680;50.764;6.120;2023-09-07T11:22:57;26.70;56.40
79049;DHT22;68680;50.764;6.120;2023-09-07T11:25:22;26.70;55.90
79049;DHT22;68680;50.764;6.120;2023-09-07T11:27:48;26.80;56.60
79049;DHT22;68680;50.764;6.120;2023-09-07T11:30:14;26.90;56.40
79049;DHT22;68680;50.764;6.120;2023-09-07T11:32:39;26.90;56.20
79049;DHT22;68680;50.764;6.120;2023-09-07T11:35:05;26.90;55.20
79049;DHT22;68680;50.764;6.120;2023-09-07T11:37:33;26.90;55.20
79049;DHT22;68680;50.764;6.120;2023-09-07T11:39:59;27.10;56.20
79049;DHT22;68680;50.764;6.120;2023-09-07T11:42:24;27.20;55.40
79049;DHT22;68680;50.764;6.120;2023-09-07T11:44:50;27.10;54.80
79049;DHT22;68680;50.764;6.120;2023-09-07T11:47:16;27.20;54.50
79049;DHT22;68680;50.764;6.120;2023-09-07T11:49:41;27.20;54.70
79049;DHT22;68680;50.764;6.120;2023-09-07T11:52:07;27.30;54.40
79049;DHT22;68680;50.764;6.120;2023-09-07T11:54:34;27.40;55.30
79049;DHT22;68680;50.764;6.120;2023-09-07T11:56:59;27.40;54.50
79049;DHT22;68680;50.764;6.120;2023-09-07T11:59:25;27.40;55.10
79049;DHT22;68680;50.764;6.120;2023-09-07T12:01:50;27.50;54.30
79049;DHT22;68680;50.764;6.120;2023-09-07T12:04:16;27.60;53.90
79049;DHT22;68680;50.764;6.120;2023-09-07T12:06:42;27.60;54.70
79049;DHT22;68680;50.764;6.120;2023-09-07T12:09:07;27.60;53.70
79049;DHT22;68680;50.764;6.120;2023-09-07T12:11:34;27.60;53.90
79049;DHT22;68680;50.764;6.120;2023-09-07T12:14:00;27.70;54.10
79049;DHT22;68680;50.764;6.120;2023-09-07T12:16:26;27.70;55.50
79049;DHT22;68680;50.764;6.120;2023-09-07T12:18:52;27.80;54.50
79049;DHT22;68680;50.764;6.120;2023-09-07T12:21:17;27.90;54.30
79049;DHT22;68680;50.764;6.120;2023-09-07T12:23:43;27.90;55.10
79049;DHT22;68680;50.764;6.120;2023-09-07T12:26:08;27.90;54.10
79049;DHT22;68680;50.764;6.120;2023-09-07T12:28:36;28.00;54.30
79049;DHT22;68680;50.764;6.120;2023-09-07T12:31:01;28.00;54.70
79049;DHT22;68680;50.764;6.120;2023-09-07T12:33:27;28.10;53.30
79049;DHT22;68680;50.764;6.120;2023-09-07T12:35:52;28.30;54.00
79049;DHT22;68680;50.764;6.120;2023-09-07T12:38:18;28.30;53.20
79049;DHT22;68680;50.764;6.120;2023-09-07T12:40:44;28.40;53.80
79049;DHT22;68680;50.764;6.120;2023-09-07T12:43:09;28.30;54.50
79049;DHT22;68680;50.764;6.120;2023-09-07T12:45:36;28.20;54.20
79049;DHT22;68680;50.764;6.120;2023-09-07T12:48:02;28.30;54.00
79049;DHT22;68680;50.764;6.120;2023-09-07T12:50:28;28.40;52.70
79049;DHT22;68680;50.764;6.120;2023-09-07T12:52:54;28.40;53.70
79049;DHT22;68680;50.764;6.120;2023-09-07T12:55:20;28.50;53.20
79049;DHT22;68680;50.764;6.120;2023-09-07T12:57:45;28.50;53.20
79049;DHT22;68680;50.764;6.120;2023-09-07T13:00:12;28.40;53.00
79049;DHT22;68680;50.764;6.120;2023-09-07T13:02:39;28.60;53.10
79049;DHT22;68680;50.764;6.120;2023-09-07T13:05:06;28.60;52.30
79049;DHT22;68680;50.764;6.120;2023-09-07T13:07:32;28.50;53.00
79049;DHT22;68680;50.764;6.120;2023-09-07T13:09:58;28.70;54.70
79049;DHT22;68680;50.764;6.120;2023-09-07T13:12:24;28.90;54.90
79049;DHT22;68680;50.764;6.120;2023-09-07T13:14:49;29.10;55.10
79049;DHT22;68680;50.764;6.120;2023-09-07T13:17:15;29.40;54.60
79049;DHT22;68680;50.764;6.120;2023-09-07T13:19:42;29.70;53.60
79049;DHT22;68680;50.764;6.120;2023-09-07T13:22:09;30.00;54.20
79049;DHT22;68680;50.764;6.120;2023-09-07T13:24:34;30.80;52.80
79049;DHT22;68680;50.764;6.120;2023-09-07T13:27:00;31.50;50.40
79049;DHT22;68680;50.764;6.120;2023-09-07T13:29:26;32.80;47.80
79049;DHT22;68680;50.764;6.120;2023-09-07T13:31:51;33.90;45.40
79049;DHT22;68680;50.764;6.120;2023-09-07T13:34:17;34.70;43.20
79049;DHT22;68680;50.764;6.120;2023-09-07T13:36:44;35.60;42.20
79049;DHT22;68680;50.764;6.120;2023-09-07T13:39:09;36.20;41.00
79049;DHT22;68680;50.764;6.120;2023-09-07T13:41:35;36.60;39.20
79049;DHT22;68680;50.764;6.120;2023-09-07T13:44:01;37.00;38.30
79049;DHT22;68680;50.764;6.120;2023-09-07T13:46:26;37.90;37.90
79049;DHT22;68680;50.764;6.120;2023-09-07T13:48:52;38.50;36.60
79049;DHT22;68680;50.764;6.120;2023-09-07T13:51:18;38.90;36.60
79049;DHT22;68680;50.764;6.120;2023-09-07T13:53:44;39.30;36.20
79049;DHT22;68680;50.764;6.120;2023-09-07T13:56:10;40.00;34.90
79049;DHT22;68680;50.764;6.120;2023-09-07T13:58:36;40.20;33.30
79049;DHT22;68680;50.764;6.120;2023-09-07T14:01:01;40.50;33.10
79049;DHT22;68680;50.764;6.120;2023-09-07T14:03:27;40.40;33.50
79049;DHT22;68680;50.764;6.120;2023-09-07T14:05:52;40.10;32.50
79049;DHT22;68680;50.764;6.120;2023-09-07T14:08:18;40.20;32.90
79049;DHT22;68680;50.764;6.120;2023-09-07T14:10:45;40.40;32.30
79049;DHT22;68680;50.764;6.120;2023-09-07T14:13:11;40.70;31.50
79049;DHT22;68680;50.764;6.120;2023-09-07T14:15:36;41.00;31.50
79049;DHT22;68680;50.764;6.120;2023-09-07T14:18:02;40.90;31.30
79049;DHT22;68680;50.764;6.120;2023-09-07T14:20:28;41.10;30.90
79049;DHT22;68680;50.764;6.120;2023-09-07T14:22:53;41.30;31.10
79049;DHT22;68680;50.764;6.120;2023-09-07T14:25:19;41.30;31.10
79049;DHT22;68680;50.764;6.120;2023-09-07T14:27:46;40.50;31.40
79049;DHT22;68680;50.764;6.120;2023-09-07T14:30:12;39.60;33.10
79049;DHT22;68680;50.764;6.120;2023-09-07T14:32:37;38.10;34.40
79049;DHT22;68680;50.764;6.120;2023-09-07T14:35:03;36.20;36.40
79049;DHT22;68680;50.764;6.120;2023-09-07T14:37:29;34.80;38.00
79049;DHT22;68680;50.764;6.120;2023-09-07T14:39:55;33.70;39.30
79049;DHT22;68680;50.764;6.120;2023-09-07T14:42:20;33.10;40.90
79049;DHT22;68680;50.764;6.120;2023-09-07T14:44:47;32.90;40.60
79049;DHT22;68680;50.764;6.120;2023-09-07T14:47:13;32.60;41.80
79049;DHT22;68680;50.764;6.120;2023-09-07T14:49:39;32.20;42.70
79049;DHT22;68680;50.764;6.120;2023-09-07T14:52:05;31.70;43.70
79049;DHT22;68680;50.764;6.120;2023-09-07T14:54:31;31.30;45.20
79049;DHT22;68680;50.764;6.120;2023-09-07T14:56:57;30.90;45.50
79049;DHT22;68680;50.764;6.120;2023-09-07T14:59:22;30.60;46.20
79049;DHT22;68680;50.764;6.120;2023-09-07T15:01:49;30.40;45.20
79049;DHT22;68680;50.764;6.120;2023-09-07T15:04:15;30.40;46.40
79049;DHT22;68680;50.764;6.120;2023-09-07T15:06:40;30.20;45.80
79049;DHT22;68680;50.764;6.120;2023-09-07T15:09:06;30.10;46.30
79049;DHT22;68680;50.764;6.120;2023-09-07T15:11:32;30.50;45.70
79049;DHT22;68680;50.764;6.120;2023-09-07T15:13:57;31.20;44.20
79049;DHT22;68680;50.764;6.120;2023-09-07T15:16:23;31.20;44.70
79049;DHT22;68680;50.764;6.120;2023-09-07T15:18:50;30.80;45.60
79049;DHT22;68680;50.764;6.120;2023-09-07T15:21:16;30.40;45.70
79049;DHT22;68680;50.764;6.120;2023-09-07T15:23:41;30.00;46.50
79049;DHT22;68680;50.764;6.120;2023-09-07T15:26:07;29.60;48.30
79049;DHT22;68680;50.764;6.120;2023-09-07T15:28:32;29.30;48.90